POGODA: Poland

Lotnisko: Rzeszow-Jasionka

METAR KOD: EPRZ


METAR: EPRZ 231530Z 05009KT 2000 -DZ BR BKN003 OVC006 04/04 Q1018


BLOK
Pogoda METAR
231530Z
Dzien: 23, Godzina: 15:30 UTC.
05009KT
Wiatr z kierunku 050, o predkosci 17 km/h
2000
Widzialnosc pozioma 2000 m.
-DZ
slab. mzawka
BR
zamglenia
BKN003
5/8 - 7/8 pokrycia nieba, chmurami o podstawie: 90 metrow
OVC006
calkowite zachmurzenie o podstawie: 180 metrow
04/04
Temperatura: powietrze 4°C, punkt rosy 4°C . Wilgotnosc wzgledna 100 %
Q1018
Cisnienie: 1018 hPa

Pogoda na innym lotnisku

Pogoda Gdansk-Rebiechowo WEATHER Poland  
Pogoda Katowice WEATHER Poland  
Pogoda Krakow WEATHER Poland  
Pogoda Poznan WEATHER Poland  
Pogoda Rzeszow-Jasionka WEATHER Poland  
Pogoda Szczecin WEATHER Poland  
Pogoda Warszawa-Okecie WEATHER Poland  
Pogoda Wroclaw Ii WEATHER Poland  

Pogoda w inny kraju

Strona startowa

(C) by GREGOR 2007
Ogłoszenia Towarzyskie